sensor_id;sensor_type;location;lat;lon;timestamp;P1;durP1;ratioP1;P2;durP2;ratioP2
11490;SDS011;5802;52.832;4.758;2022-08-21T00:00:42;1.67;;;1.25;;
11490;SDS011;5802;52.832;4.758;2022-08-21T00:03:09;4.07;;;1.42;;
11490;SDS011;5802;52.832;4.758;2022-08-21T00:05:39;3.97;;;1.40;;
11490;SDS011;5802;52.832;4.758;2022-08-21T00:08:09;2.78;;;1.20;;
11490;SDS011;5802;52.832;4.758;2022-08-21T00:10:36;3.17;;;1.48;;
11490;SDS011;5802;52.832;4.758;2022-08-21T00:13:03;2.30;;;1.50;;
11490;SDS011;5802;52.832;4.758;2022-08-21T00:15:31;3.20;;;1.52;;
11490;SDS011;5802;52.832;4.758;2022-08-21T00:18:01;3.60;;;1.55;;
11490;SDS011;5802;52.832;4.758;2022-08-21T00:20:29;2.85;;;1.70;;
11490;SDS011;5802;52.832;4.758;2022-08-21T00:22:56;3.95;;;1.25;;
11490;SDS011;5802;52.832;4.758;2022-08-21T00:25:25;5.10;;;1.40;;
11490;SDS011;5802;52.832;4.758;2022-08-21T00:27:52;3.08;;;1.33;;
11490;SDS011;5802;52.832;4.758;2022-08-21T00:30:19;3.72;;;1.40;;
11490;SDS011;5802;52.832;4.758;2022-08-21T00:32:48;2.88;;;1.40;;
11490;SDS011;5802;52.832;4.758;2022-08-21T00:35:16;4.35;;;1.70;;
11490;SDS011;5802;52.832;4.758;2022-08-21T00:37:43;2.13;;;1.42;;
11490;SDS011;5802;52.832;4.758;2022-08-21T00:40:12;2.75;;;1.20;;
11490;SDS011;5802;52.832;4.758;2022-08-21T00:42:42;2.00;;;1.23;;
11490;SDS011;5802;52.832;4.758;2022-08-21T00:45:10;2.08;;;1.40;;
11490;SDS011;5802;52.832;4.758;2022-08-21T00:47:37;2.75;;;1.40;;
11490;SDS011;5802;52.832;4.758;2022-08-21T00:50:05;2.72;;;1.35;;
11490;SDS011;5802;52.832;4.758;2022-08-21T00:52:35;2.55;;;1.48;;
11490;SDS011;5802;52.832;4.758;2022-08-21T00:55:03;2.55;;;1.70;;
11490;SDS011;5802;52.832;4.758;2022-08-21T00:57:34;2.80;;;1.60;;
11490;SDS011;5802;52.832;4.758;2022-08-21T01:00:07;2.38;;;1.38;;
11490;SDS011;5802;52.832;4.758;2022-08-21T01:02:37;3.28;;;1.30;;
11490;SDS011;5802;52.832;4.758;2022-08-21T01:05:04;2.42;;;1.40;;
11490;SDS011;5802;52.832;4.758;2022-08-21T01:07:32;4.25;;;1.65;;
11490;SDS011;5802;52.832;4.758;2022-08-21T01:09:59;3.55;;;1.50;;
11490;SDS011;5802;52.832;4.758;2022-08-21T01:12:26;3.05;;;1.55;;
11490;SDS011;5802;52.832;4.758;2022-08-21T01:14:53;2.88;;;1.67;;
11490;SDS011;5802;52.832;4.758;2022-08-21T01:17:21;3.17;;;1.58;;
11490;SDS011;5802;52.832;4.758;2022-08-21T01:19:48;2.55;;;1.60;;
11490;SDS011;5802;52.832;4.758;2022-08-21T01:22:16;2.65;;;1.77;;
11490;SDS011;5802;52.832;4.758;2022-08-21T01:24:44;2.72;;;1.60;;
11490;SDS011;5802;52.832;4.758;2022-08-21T01:27:11;3.08;;;1.77;;
11490;SDS011;5802;52.832;4.758;2022-08-21T01:29:39;3.00;;;1.55;;
11490;SDS011;5802;52.832;4.758;2022-08-21T01:32:10;2.55;;;1.63;;
11490;SDS011;5802;52.832;4.758;2022-08-21T01:34:41;2.95;;;1.60;;
11490;SDS011;5802;52.832;4.758;2022-08-21T01:37:09;2.03;;;1.40;;
11490;SDS011;5802;52.832;4.758;2022-08-21T01:39:39;2.05;;;1.50;;
11490;SDS011;5802;52.832;4.758;2022-08-21T01:42:07;3.92;;;1.73;;
11490;SDS011;5802;52.832;4.758;2022-08-21T01:44:34;2.83;;;1.90;;
11490;SDS011;5802;52.832;4.758;2022-08-21T01:47:03;3.50;;;1.40;;
11490;SDS011;5802;52.832;4.758;2022-08-21T01:49:32;2.67;;;1.40;;
11490;SDS011;5802;52.832;4.758;2022-08-21T01:51:59;2.63;;;1.73;;
11490;SDS011;5802;52.832;4.758;2022-08-21T01:54:26;2.83;;;1.50;;
11490;SDS011;5802;52.832;4.758;2022-08-21T01:56:54;2.60;;;1.58;;
11490;SDS011;5802;52.832;4.758;2022-08-21T01:59:21;2.53;;;1.50;;
11490;SDS011;5802;52.832;4.758;2022-08-21T02:01:49;2.63;;;1.83;;
11490;SDS011;5802;52.832;4.758;2022-08-21T02:04:17;3.03;;;1.45;;
11490;SDS011;5802;52.832;4.758;2022-08-21T02:06:44;3.65;;;1.75;;
11490;SDS011;5802;52.832;4.758;2022-08-21T02:09:11;4.10;;;1.90;;
11490;SDS011;5802;52.832;4.758;2022-08-21T02:11:39;3.63;;;1.60;;
11490;SDS011;5802;52.832;4.758;2022-08-21T02:14:07;2.30;;;1.52;;
11490;SDS011;5802;52.832;4.758;2022-08-21T02:16:36;3.10;;;1.75;;
11490;SDS011;5802;52.832;4.758;2022-08-21T02:19:03;2.65;;;1.70;;
11490;SDS011;5802;52.832;4.758;2022-08-21T02:21:30;2.40;;;1.45;;
11490;SDS011;5802;52.832;4.758;2022-08-21T02:23:57;1.98;;;1.55;;
11490;SDS011;5802;52.832;4.758;2022-08-21T02:26:25;4.88;;;1.50;;
11490;SDS011;5802;52.832;4.758;2022-08-21T02:28:51;1.95;;;1.50;;
11490;SDS011;5802;52.832;4.758;2022-08-21T02:31:20;2.67;;;1.40;;
11490;SDS011;5802;52.832;4.758;2022-08-21T02:33:47;3.38;;;1.40;;
11490;SDS011;5802;52.832;4.758;2022-08-21T02:36:14;2.47;;;1.50;;
11490;SDS011;5802;52.832;4.758;2022-08-21T02:38:41;3.15;;;1.50;;
11490;SDS011;5802;52.832;4.758;2022-08-21T02:41:09;2.63;;;1.40;;
11490;SDS011;5802;52.832;4.758;2022-08-21T02:43:38;2.63;;;1.42;;
11490;SDS011;5802;52.832;4.758;2022-08-21T02:46:08;3.25;;;1.60;;
11490;SDS011;5802;52.832;4.758;2022-08-21T02:48:38;2.88;;;1.45;;
11490;SDS011;5802;52.832;4.758;2022-08-21T02:51:09;2.75;;;1.50;;
11490;SDS011;5802;52.832;4.758;2022-08-21T02:53:37;3.20;;;1.52;;
11490;SDS011;5802;52.832;4.758;2022-08-21T02:56:05;3.22;;;1.60;;
11490;SDS011;5802;52.832;4.758;2022-08-21T02:58:35;2.42;;;1.60;;
11490;SDS011;5802;52.832;4.758;2022-08-21T03:01:03;2.47;;;1.40;;
11490;SDS011;5802;52.832;4.758;2022-08-21T03:03:34;3.58;;;1.58;;
11490;SDS011;5802;52.832;4.758;2022-08-21T03:06:03;2.05;;;1.45;;
11490;SDS011;5802;52.832;4.758;2022-08-21T03:08:33;3.00;;;1.60;;
11490;SDS011;5802;52.832;4.758;2022-08-21T03:11:03;2.75;;;1.42;;
11490;SDS011;5802;52.832;4.758;2022-08-21T03:13:30;2.83;;;1.50;;
11490;SDS011;5802;52.832;4.758;2022-08-21T03:15:57;5.13;;;1.80;;
11490;SDS011;5802;52.832;4.758;2022-08-21T03:18:24;1.83;;;1.25;;
11490;SDS011;5802;52.832;4.758;2022-08-21T03:20:52;4.82;;;1.48;;
11490;SDS011;5802;52.832;4.758;2022-08-21T03:23:21;2.78;;;1.55;;
11490;SDS011;5802;52.832;4.758;2022-08-21T03:25:48;2.33;;;1.40;;
11490;SDS011;5802;52.832;4.758;2022-08-21T03:28:17;2.22;;;1.30;;
11490;SDS011;5802;52.832;4.758;2022-08-21T03:30:47;2.88;;;1.40;;
11490;SDS011;5802;52.832;4.758;2022-08-21T03:33:15;2.30;;;1.40;;
11490;SDS011;5802;52.832;4.758;2022-08-21T03:35:43;1.73;;;1.35;;
11490;SDS011;5802;52.832;4.758;2022-08-21T03:38:13;2.45;;;1.45;;
11490;SDS011;5802;52.832;4.758;2022-08-21T03:40:42;4.22;;;1.30;;
11490;SDS011;5802;52.832;4.758;2022-08-21T03:43:10;1.60;;;1.42;;
11490;SDS011;5802;52.832;4.758;2022-08-21T03:45:36;2.97;;;1.38;;
11490;SDS011;5802;52.832;4.758;2022-08-21T03:48:05;2.63;;;1.33;;
11490;SDS011;5802;52.832;4.758;2022-08-21T03:50:34;2.63;;;1.38;;
11490;SDS011;5802;52.832;4.758;2022-08-21T03:53:02;2.65;;;1.63;;
11490;SDS011;5802;52.832;4.758;2022-08-21T03:55:29;2.33;;;1.30;;
11490;SDS011;5802;52.832;4.758;2022-08-21T03:57:57;2.75;;;1.50;;
11490;SDS011;5802;52.832;4.758;2022-08-21T04:00:24;2.63;;;1.40;;
11490;SDS011;5802;52.832;4.758;2022-08-21T04:02:51;2.90;;;1.17;;
11490;SDS011;5802;52.832;4.758;2022-08-21T04:05:18;2.35;;;1.40;;
11490;SDS011;5802;52.832;4.758;2022-08-21T04:07:53;2.65;;;1.50;;
11490;SDS011;5802;52.832;4.758;2022-08-21T04:10:21;2.15;;;1.27;;
11490;SDS011;5802;52.832;4.758;2022-08-21T04:12:49;3.60;;;1.40;;
11490;SDS011;5802;52.832;4.758;2022-08-21T04:15:17;2.08;;;1.30;;
11490;SDS011;5802;52.832;4.758;2022-08-21T04:17:45;1.73;;;1.30;;
11490;SDS011;5802;52.832;4.758;2022-08-21T04:20:12;2.08;;;1.65;;
11490;SDS011;5802;52.832;4.758;2022-08-21T04:22:38;1.80;;;1.10;;
11490;SDS011;5802;52.832;4.758;2022-08-21T04:25:06;2.95;;;1.60;;
11490;SDS011;5802;52.832;4.758;2022-08-21T04:27:33;5.35;;;1.38;;
11490;SDS011;5802;52.832;4.758;2022-08-21T04:30:00;1.90;;;1.40;;
11490;SDS011;5802;52.832;4.758;2022-08-21T04:32:28;2.25;;;1.40;;
11490;SDS011;5802;52.832;4.758;2022-08-21T04:34:58;3.60;;;1.60;;
11490;SDS011;5802;52.832;4.758;2022-08-21T04:37:26;2.83;;;1.35;;
11490;SDS011;5802;52.832;4.758;2022-08-21T04:39:52;1.75;;;1.23;;
11490;SDS011;5802;52.832;4.758;2022-08-21T04:42:21;2.80;;;1.38;;
11490;SDS011;5802;52.832;4.758;2022-08-21T04:44:48;2.28;;;1.50;;
11490;SDS011;5802;52.832;4.758;2022-08-21T04:47:15;2.33;;;1.40;;
11490;SDS011;5802;52.832;4.758;2022-08-21T04:49:44;3.05;;;1.52;;
11490;SDS011;5802;52.832;4.758;2022-08-21T04:52:11;1.70;;;1.27;;
11490;SDS011;5802;52.832;4.758;2022-08-21T04:54:41;2.38;;;1.40;;
11490;SDS011;5802;52.832;4.758;2022-08-21T04:57:10;3.08;;;1.45;;
11490;SDS011;5802;52.832;4.758;2022-08-21T04:59:38;4.22;;;1.40;;
11490;SDS011;5802;52.832;4.758;2022-08-21T05:02:07;4.05;;;1.77;;
11490;SDS011;5802;52.832;4.758;2022-08-21T05:04:36;5.38;;;1.30;;
11490;SDS011;5802;52.832;4.758;2022-08-21T05:07:10;2.85;;;1.50;;
11490;SDS011;5802;52.832;4.758;2022-08-21T05:09:43;4.05;;;1.75;;
11490;SDS011;5802;52.832;4.758;2022-08-21T05:12:11;3.28;;;1.63;;
11490;SDS011;5802;52.832;4.758;2022-08-21T05:14:38;2.60;;;1.63;;
11490;SDS011;5802;52.832;4.758;2022-08-21T05:17:07;2.45;;;1.30;;
11490;SDS011;5802;52.832;4.758;2022-08-21T05:19:34;3.30;;;1.40;;
11490;SDS011;5802;52.832;4.758;2022-08-21T05:22:01;2.25;;;1.17;;
11490;SDS011;5802;52.832;4.758;2022-08-21T05:24:30;2.72;;;1.50;;
11490;SDS011;5802;52.832;4.758;2022-08-21T05:26:56;3.95;;;1.35;;
11490;SDS011;5802;52.832;4.758;2022-08-21T05:29:23;1.80;;;1.40;;
11490;SDS011;5802;52.832;4.758;2022-08-21T05:31:51;2.33;;;1.40;;
11490;SDS011;5802;52.832;4.758;2022-08-21T05:34:20;2.45;;;1.40;;
11490;SDS011;5802;52.832;4.758;2022-08-21T05:36:49;2.67;;;1.52;;
11490;SDS011;5802;52.832;4.758;2022-08-21T05:39:15;3.42;;;1.60;;
11490;SDS011;5802;52.832;4.758;2022-08-21T05:41:44;2.95;;;1.48;;
11490;SDS011;5802;52.832;4.758;2022-08-21T05:44:10;2.78;;;1.45;;
11490;SDS011;5802;52.832;4.758;2022-08-21T05:46:37;3.75;;;1.58;;
11490;SDS011;5802;52.832;4.758;2022-08-21T05:49:04;2.63;;;1.20;;
11490;SDS011;5802;52.832;4.758;2022-08-21T05:51:31;1.70;;;1.42;;
11490;SDS011;5802;52.832;4.758;2022-08-21T05:53:58;3.47;;;1.48;;
11490;SDS011;5802;52.832;4.758;2022-08-21T05:56:24;2.35;;;1.48;;
11490;SDS011;5802;52.832;4.758;2022-08-21T05:58:52;2.55;;;1.67;;
11490;SDS011;5802;52.832;4.758;2022-08-21T06:01:20;4.78;;;1.98;;
11490;SDS011;5802;52.832;4.758;2022-08-21T06:03:47;3.88;;;1.85;;
11490;SDS011;5802;52.832;4.758;2022-08-21T06:06:14;3.70;;;1.90;;
11490;SDS011;5802;52.832;4.758;2022-08-21T06:08:41;8.05;;;2.35;;
11490;SDS011;5802;52.832;4.758;2022-08-21T06:11:09;6.70;;;1.95;;
11490;SDS011;5802;52.832;4.758;2022-08-21T06:13:36;7.43;;;2.60;;
11490;SDS011;5802;52.832;4.758;2022-08-21T06:16:06;5.22;;;2.30;;
11490;SDS011;5802;52.832;4.758;2022-08-21T06:18:35;4.15;;;2.50;;
11490;SDS011;5802;52.832;4.758;2022-08-21T06:21:02;4.45;;;1.83;;
11490;SDS011;5802;52.832;4.758;2022-08-21T06:23:29;4.80;;;2.03;;
11490;SDS011;5802;52.832;4.758;2022-08-21T06:25:56;7.68;;;2.30;;
11490;SDS011;5802;52.832;4.758;2022-08-21T06:28:22;4.28;;;2.13;;
11490;SDS011;5802;52.832;4.758;2022-08-21T06:30:50;5.05;;;2.22;;
11490;SDS011;5802;52.832;4.758;2022-08-21T06:33:18;4.15;;;2.25;;
11490;SDS011;5802;52.832;4.758;2022-08-21T06:35:44;4.72;;;2.25;;
11490;SDS011;5802;52.832;4.758;2022-08-21T06:38:11;6.82;;;2.20;;
11490;SDS011;5802;52.832;4.758;2022-08-21T06:40:38;4.63;;;1.90;;
11490;SDS011;5802;52.832;4.758;2022-08-21T06:43:06;6.85;;;2.08;;
11490;SDS011;5802;52.832;4.758;2022-08-21T06:45:35;3.55;;;1.98;;
11490;SDS011;5802;52.832;4.758;2022-08-21T06:48:02;7.43;;;2.50;;
11490;SDS011;5802;52.832;4.758;2022-08-21T06:50:31;3.53;;;1.95;;
11490;SDS011;5802;52.832;4.758;2022-08-21T06:52:59;4.78;;;2.00;;
11490;SDS011;5802;52.832;4.758;2022-08-21T06:55:28;3.67;;;1.83;;
11490;SDS011;5802;52.832;4.758;2022-08-21T06:57:55;4.65;;;2.15;;
11490;SDS011;5802;52.832;4.758;2022-08-21T07:00:22;6.00;;;1.90;;
11490;SDS011;5802;52.832;4.758;2022-08-21T07:02:49;3.08;;;2.00;;
11490;SDS011;5802;52.832;4.758;2022-08-21T07:05:15;7.13;;;2.08;;
11490;SDS011;5802;52.832;4.758;2022-08-21T07:07:44;5.40;;;1.90;;
11490;SDS011;5802;52.832;4.758;2022-08-21T07:10:11;4.18;;;2.10;;
11490;SDS011;5802;52.832;4.758;2022-08-21T07:12:38;4.05;;;2.03;;
11490;SDS011;5802;52.832;4.758;2022-08-21T07:15:05;5.47;;;2.10;;
11490;SDS011;5802;52.832;4.758;2022-08-21T07:17:32;3.90;;;1.90;;
11490;SDS011;5802;52.832;4.758;2022-08-21T07:20:00;6.57;;;1.80;;
11490;SDS011;5802;52.832;4.758;2022-08-21T07:22:33;4.93;;;2.17;;
11490;SDS011;5802;52.832;4.758;2022-08-21T07:25:04;2.35;;;1.50;;
11490;SDS011;5802;52.832;4.758;2022-08-21T07:27:31;4.50;;;1.48;;
11490;SDS011;5802;52.832;4.758;2022-08-21T07:29:58;4.90;;;1.80;;
11490;SDS011;5802;52.832;4.758;2022-08-21T07:32:25;3.20;;;1.65;;
11490;SDS011;5802;52.832;4.758;2022-08-21T07:34:52;4.10;;;1.85;;
11490;SDS011;5802;52.832;4.758;2022-08-21T07:37:19;3.58;;;1.52;;
11490;SDS011;5802;52.832;4.758;2022-08-21T07:39:45;5.35;;;1.77;;
11490;SDS011;5802;52.832;4.758;2022-08-21T07:42:15;4.03;;;1.83;;
11490;SDS011;5802;52.832;4.758;2022-08-21T07:44:42;3.83;;;1.80;;
11490;SDS011;5802;52.832;4.758;2022-08-21T07:47:09;3.70;;;1.63;;
11490;SDS011;5802;52.832;4.758;2022-08-21T07:49:35;3.75;;;1.63;;
11490;SDS011;5802;52.832;4.758;2022-08-21T07:52:02;4.97;;;1.60;;
11490;SDS011;5802;52.832;4.758;2022-08-21T07:54:29;4.50;;;1.70;;
11490;SDS011;5802;52.832;4.758;2022-08-21T07:56:56;3.00;;;1.48;;
11490;SDS011;5802;52.832;4.758;2022-08-21T07:59:24;3.45;;;1.52;;
11490;SDS011;5802;52.832;4.758;2022-08-21T08:01:50;2.60;;;1.40;;
11490;SDS011;5802;52.832;4.758;2022-08-21T08:04:17;4.15;;;1.73;;
11490;SDS011;5802;52.832;4.758;2022-08-21T08:06:44;2.53;;;1.40;;
11490;SDS011;5802;52.832;4.758;2022-08-21T08:09:11;4.85;;;1.58;;
11490;SDS011;5802;52.832;4.758;2022-08-21T08:11:38;5.15;;;1.63;;
11490;SDS011;5802;52.832;4.758;2022-08-21T08:14:08;2.90;;;1.55;;
11490;SDS011;5802;52.832;4.758;2022-08-21T08:16:37;3.10;;;1.48;;
11490;SDS011;5802;52.832;4.758;2022-08-21T08:19:03;3.70;;;1.40;;
11490;SDS011;5802;52.832;4.758;2022-08-21T08:21:30;4.43;;;1.70;;
11490;SDS011;5802;52.832;4.758;2022-08-21T08:23:58;3.75;;;1.50;;
11490;SDS011;5802;52.832;4.758;2022-08-21T08:26:25;4.53;;;1.67;;
11490;SDS011;5802;52.832;4.758;2022-08-21T08:28:52;4.80;;;1.67;;
11490;SDS011;5802;52.832;4.758;2022-08-21T08:31:18;3.45;;;1.63;;
11490;SDS011;5802;52.832;4.758;2022-08-21T08:33:46;2.58;;;1.38;;
11490;SDS011;5802;52.832;4.758;2022-08-21T08:36:14;5.68;;;1.88;;
11490;SDS011;5802;52.832;4.758;2022-08-21T08:38:42;3.15;;;1.77;;
11490;SDS011;5802;52.832;4.758;2022-08-21T08:41:10;3.78;;;1.60;;
11490;SDS011;5802;52.832;4.758;2022-08-21T08:43:39;5.25;;;1.75;;
11490;SDS011;5802;52.832;4.758;2022-08-21T08:46:11;5.07;;;1.77;;
11490;SDS011;5802;52.832;4.758;2022-08-21T08:48:46;3.25;;;1.60;;
11490;SDS011;5802;52.832;4.758;2022-08-21T08:51:19;4.07;;;1.92;;
11490;SDS011;5802;52.832;4.758;2022-08-21T08:53:51;3.20;;;1.80;;
11490;SDS011;5802;52.832;4.758;2022-08-21T08:56:22;3.35;;;1.90;;
11490;SDS011;5802;52.832;4.758;2022-08-21T08:58:53;4.78;;;1.90;;
11490;SDS011;5802;52.832;4.758;2022-08-21T09:01:24;3.55;;;1.77;;
11490;SDS011;5802;52.832;4.758;2022-08-21T09:03:52;3.63;;;1.70;;
11490;SDS011;5802;52.832;4.758;2022-08-21T09:06:25;4.75;;;2.00;;
11490;SDS011;5802;52.832;4.758;2022-08-21T09:09:02;3.90;;;1.92;;
11490;SDS011;5802;52.832;4.758;2022-08-21T09:11:37;4.88;;;1.67;;
11490;SDS011;5802;52.832;4.758;2022-08-21T09:14:13;3.38;;;1.67;;
11490;SDS011;5802;52.832;4.758;2022-08-21T09:16:47;3.70;;;1.60;;
11490;SDS011;5802;52.832;4.758;2022-08-21T09:19:27;6.10;;;2.13;;
11490;SDS011;5802;52.832;4.758;2022-08-21T09:22:07;6.90;;;2.08;;
11490;SDS011;5802;52.832;4.758;2022-08-21T09:24:41;7.43;;;1.70;;
11490;SDS011;5802;52.832;4.758;2022-08-21T09:27:20;3.65;;;2.03;;
11490;SDS011;5802;52.832;4.758;2022-08-21T09:29:49;6.57;;;1.85;;
11490;SDS011;5802;52.832;4.758;2022-08-21T09:32:22;8.38;;;2.08;;
11490;SDS011;5802;52.832;4.758;2022-08-21T09:34:56;7.18;;;1.98;;
11490;SDS011;5802;52.832;4.758;2022-08-21T09:37:25;4.50;;;2.22;;
11490;SDS011;5802;52.832;4.758;2022-08-21T09:39:57;7.20;;;2.20;;
11490;SDS011;5802;52.832;4.758;2022-08-21T09:42:25;5.45;;;1.83;;
11490;SDS011;5802;52.832;4.758;2022-08-21T09:45:07;6.22;;;1.90;;
11490;SDS011;5802;52.832;4.758;2022-08-21T09:47:37;4.50;;;1.95;;
11490;SDS011;5802;52.832;4.758;2022-08-21T09:50:09;5.78;;;2.15;;
11490;SDS011;5802;52.832;4.758;2022-08-21T09:52:42;7.53;;;1.83;;
11490;SDS011;5802;52.832;4.758;2022-08-21T09:55:15;6.40;;;2.10;;
11490;SDS011;5802;52.832;4.758;2022-08-21T09:57:59;4.97;;;1.80;;
11490;SDS011;5802;52.832;4.758;2022-08-21T10:00:29;10.07;;;1.70;;
11490;SDS011;5802;52.832;4.758;2022-08-21T10:03:07;4.70;;;1.80;;
11490;SDS011;5802;52.832;4.758;2022-08-21T10:05:38;5.70;;;1.77;;
11490;SDS011;5802;52.832;4.758;2022-08-21T10:08:15;8.32;;;2.03;;
11490;SDS011;5802;52.832;4.758;2022-08-21T10:10:43;3.67;;;1.80;;
11490;SDS011;5802;52.832;4.758;2022-08-21T10:13:12;4.07;;;1.90;;
11490;SDS011;5802;52.832;4.758;2022-08-21T10:15:47;5.25;;;1.90;;
11490;SDS011;5802;52.832;4.758;2022-08-21T10:18:24;6.35;;;2.00;;
11490;SDS011;5802;52.832;4.758;2022-08-21T10:20:57;5.85;;;1.70;;
11490;SDS011;5802;52.832;4.758;2022-08-21T10:23:35;5.22;;;1.75;;
11490;SDS011;5802;52.832;4.758;2022-08-21T10:26:17;4.28;;;1.80;;
11490;SDS011;5802;52.832;4.758;2022-08-21T10:28:55;3.25;;;1.73;;
11490;SDS011;5802;52.832;4.758;2022-08-21T10:31:34;5.47;;;1.90;;
11490;SDS011;5802;52.832;4.758;2022-08-21T10:34:11;4.55;;;1.75;;
11490;SDS011;5802;52.832;4.758;2022-08-21T10:36:52;3.58;;;1.88;;
11490;SDS011;5802;52.832;4.758;2022-08-21T10:39:29;7.25;;;1.83;;
11490;SDS011;5802;52.832;4.758;2022-08-21T10:42:05;4.85;;;1.85;;
11490;SDS011;5802;52.832;4.758;2022-08-21T10:44:45;8.13;;;1.77;;
11490;SDS011;5802;52.832;4.758;2022-08-21T10:47:23;4.40;;;1.83;;
11490;SDS011;5802;52.832;4.758;2022-08-21T10:49:58;5.85;;;2.00;;
11490;SDS011;5802;52.832;4.758;2022-08-21T10:52:51;4.70;;;1.80;;
11490;SDS011;5802;52.832;4.758;2022-08-21T10:55:39;2.85;;;1.60;;
11490;SDS011;5802;52.832;4.758;2022-08-21T10:58:11;4.72;;;1.67;;
11490;SDS011;5802;52.832;4.758;2022-08-21T11:00:45;4.97;;;1.58;;
11490;SDS011;5802;52.832;4.758;2022-08-21T11:03:16;4.00;;;1.90;;
11490;SDS011;5802;52.832;4.758;2022-08-21T11:05:49;5.28;;;2.05;;
11490;SDS011;5802;52.832;4.758;2022-08-21T11:08:21;4.18;;;1.70;;
11490;SDS011;5802;52.832;4.758;2022-08-21T11:10:51;7.53;;;1.90;;
11490;SDS011;5802;52.832;4.758;2022-08-21T11:13:24;7.88;;;1.80;;
11490;SDS011;5802;52.832;4.758;2022-08-21T11:15:56;6.15;;;1.90;;
11490;SDS011;5802;52.832;4.758;2022-08-21T11:18:32;6.13;;;1.90;;
11490;SDS011;5802;52.832;4.758;2022-08-21T11:21:04;7.57;;;1.92;;
11490;SDS011;5802;52.832;4.758;2022-08-21T11:23:43;3.75;;;1.60;;
11490;SDS011;5802;52.832;4.758;2022-08-21T11:26:13;4.82;;;1.70;;
11490;SDS011;5802;52.832;4.758;2022-08-21T11:28:46;6.32;;;2.03;;
11490;SDS011;5802;52.832;4.758;2022-08-21T11:31:22;9.48;;;2.05;;
11490;SDS011;5802;52.832;4.758;2022-08-21T11:34:02;2.10;;;1.33;;
11490;SDS011;5802;52.832;4.758;2022-08-21T11:36:37;3.22;;;1.70;;
11490;SDS011;5802;52.832;4.758;2022-08-21T11:39:13;4.25;;;1.52;;
11490;SDS011;5802;52.832;4.758;2022-08-21T11:41:52;2.78;;;1.52;;
11490;SDS011;5802;52.832;4.758;2022-08-21T11:44:26;5.68;;;1.33;;
11490;SDS011;5802;52.832;4.758;2022-08-21T11:47:05;3.53;;;1.63;;
11490;SDS011;5802;52.832;4.758;2022-08-21T11:49:44;3.78;;;1.60;;
11490;SDS011;5802;52.832;4.758;2022-08-21T11:52:20;3.80;;;1.42;;
11490;SDS011;5802;52.832;4.758;2022-08-21T11:54:54;7.15;;;1.75;;
11490;SDS011;5802;52.832;4.758;2022-08-21T11:57:24;4.55;;;1.50;;
11490;SDS011;5802;52.832;4.758;2022-08-21T11:59:55;3.78;;;1.70;;
11490;SDS011;5802;52.832;4.758;2022-08-21T12:02:28;4.65;;;1.83;;
11490;SDS011;5802;52.832;4.758;2022-08-21T12:04:58;3.78;;;2.00;;
11490;SDS011;5802;52.832;4.758;2022-08-21T12:07:32;3.45;;;1.40;;
11490;SDS011;5802;52.832;4.758;2022-08-21T12:10:03;3.33;;;1.60;;
11490;SDS011;5802;52.832;4.758;2022-08-21T12:12:32;2.75;;;1.50;;
11490;SDS011;5802;52.832;4.758;2022-08-21T12:15:06;2.92;;;1.55;;
11490;SDS011;5802;52.832;4.758;2022-08-21T12:17:52;3.88;;;1.55;;
11490;SDS011;5802;52.832;4.758;2022-08-21T12:20:26;2.88;;;1.45;;
11490;SDS011;5802;52.832;4.758;2022-08-21T12:23:24;3.80;;;1.67;;
11490;SDS011;5802;52.832;4.758;2022-08-21T12:26:01;6.38;;;1.80;;
11490;SDS011;5802;52.832;4.758;2022-08-21T12:28:50;12.25;;;2.10;;
11490;SDS011;5802;52.832;4.758;2022-08-21T12:31:20;5.68;;;1.80;;
11490;SDS011;5802;52.832;4.758;2022-08-21T12:33:51;8.45;;;1.88;;
11490;SDS011;5802;52.832;4.758;2022-08-21T12:36:22;5.97;;;1.88;;
11490;SDS011;5802;52.832;4.758;2022-08-21T12:38:52;8.50;;;2.17;;
11490;SDS011;5802;52.832;4.758;2022-08-21T12:41:26;4.85;;;1.80;;
11490;SDS011;5802;52.832;4.758;2022-08-21T12:43:57;7.47;;;1.95;;
11490;SDS011;5802;52.832;4.758;2022-08-21T12:46:27;7.07;;;1.83;;
11490;SDS011;5802;52.832;4.758;2022-08-21T12:49:08;7.35;;;2.00;;
11490;SDS011;5802;52.832;4.758;2022-08-21T12:51:45;6.15;;;1.70;;
11490;SDS011;5802;52.832;4.758;2022-08-21T12:54:21;4.18;;;1.63;;
11490;SDS011;5802;52.832;4.758;2022-08-21T12:56:59;4.53;;;1.67;;
11490;SDS011;5802;52.832;4.758;2022-08-21T12:59:27;8.98;;;2.05;;
11490;SDS011;5802;52.832;4.758;2022-08-21T13:01:55;7.53;;;2.00;;
11490;SDS011;5802;52.832;4.758;2022-08-21T13:04:26;8.60;;;1.92;;
11490;SDS011;5802;52.832;4.758;2022-08-21T13:07:00;4.20;;;1.85;;
11490;SDS011;5802;52.832;4.758;2022-08-21T13:09:32;4.72;;;1.80;;
11490;SDS011;5802;52.832;4.758;2022-08-21T13:12:06;3.88;;;1.75;;
11490;SDS011;5802;52.832;4.758;2022-08-21T13:14:35;4.88;;;1.88;;
11490;SDS011;5802;52.832;4.758;2022-08-21T13:17:05;6.53;;;1.88;;
11490;SDS011;5802;52.832;4.758;2022-08-21T13:19:32;6.15;;;1.95;;
11490;SDS011;5802;52.832;4.758;2022-08-21T13:22:00;6.28;;;1.73;;
11490;SDS011;5802;52.832;4.758;2022-08-21T13:24:29;4.85;;;2.05;;
11490;SDS011;5802;52.832;4.758;2022-08-21T13:26:58;7.50;;;2.17;;
11490;SDS011;5802;52.832;4.758;2022-08-21T13:29:29;5.68;;;1.70;;
11490;SDS011;5802;52.832;4.758;2022-08-21T13:31:58;6.53;;;2.15;;
11490;SDS011;5802;52.832;4.758;2022-08-21T13:34:30;5.35;;;1.95;;
11490;SDS011;5802;52.832;4.758;2022-08-21T13:37:00;5.88;;;1.95;;
11490;SDS011;5802;52.832;4.758;2022-08-21T13:39:29;3.85;;;1.52;;
11490;SDS011;5802;52.832;4.758;2022-08-21T13:41:58;5.22;;;1.80;;
11490;SDS011;5802;52.832;4.758;2022-08-21T13:44:34;3.90;;;1.50;;
11490;SDS011;5802;52.832;4.758;2022-08-21T13:47:06;5.28;;;1.90;;
11490;SDS011;5802;52.832;4.758;2022-08-21T13:49:37;6.60;;;1.90;;
11490;SDS011;5802;52.832;4.758;2022-08-21T13:52:12;6.70;;;2.10;;
11490;SDS011;5802;52.832;4.758;2022-08-21T13:54:41;5.57;;;1.80;;
11490;SDS011;5802;52.832;4.758;2022-08-21T13:57:15;6.57;;;1.90;;
11490;SDS011;5802;52.832;4.758;2022-08-21T13:59:44;7.75;;;2.00;;
11490;SDS011;5802;52.832;4.758;2022-08-21T14:02:12;6.18;;;1.70;;
11490;SDS011;5802;52.832;4.758;2022-08-21T14:04:42;5.25;;;2.08;;
11490;SDS011;5802;52.832;4.758;2022-08-21T14:07:16;4.78;;;2.03;;
11490;SDS011;5802;52.832;4.758;2022-08-21T14:09:47;5.10;;;2.22;;
11490;SDS011;5802;52.832;4.758;2022-08-21T14:12:14;4.10;;;1.90;;
11490;SDS011;5802;52.832;4.758;2022-08-21T14:14:43;7.43;;;2.67;;
11490;SDS011;5802;52.832;4.758;2022-08-21T14:17:12;4.72;;;2.00;;
11490;SDS011;5802;52.832;4.758;2022-08-21T14:19:51;5.30;;;2.10;;
11490;SDS011;5802;52.832;4.758;2022-08-21T14:22:37;5.07;;;1.98;;
11490;SDS011;5802;52.832;4.758;2022-08-21T14:25:06;7.00;;;2.30;;
11490;SDS011;5802;52.832;4.758;2022-08-21T14:27:38;6.32;;;2.25;;
11490;SDS011;5802;52.832;4.758;2022-08-21T14:30:12;8.63;;;2.50;;
11490;SDS011;5802;52.832;4.758;2022-08-21T14:32:44;4.80;;;2.05;;
11490;SDS011;5802;52.832;4.758;2022-08-21T14:35:11;5.35;;;1.83;;
11490;SDS011;5802;52.832;4.758;2022-08-21T14:37:40;7.70;;;2.30;;
11490;SDS011;5802;52.832;4.758;2022-08-21T14:40:08;5.35;;;2.15;;
11490;SDS011;5802;52.832;4.758;2022-08-21T14:42:36;7.60;;;2.30;;
11490;SDS011;5802;52.832;4.758;2022-08-21T14:45:04;5.20;;;1.98;;
11490;SDS011;5802;52.832;4.758;2022-08-21T14:47:39;5.95;;;2.10;;
11490;SDS011;5802;52.832;4.758;2022-08-21T14:50:07;5.50;;;2.00;;
11490;SDS011;5802;52.832;4.758;2022-08-21T14:52:35;6.78;;;2.20;;
11490;SDS011;5802;52.832;4.758;2022-08-21T14:55:02;4.78;;;2.10;;
11490;SDS011;5802;52.832;4.758;2022-08-21T14:57:29;6.70;;;2.13;;
11490;SDS011;5802;52.832;4.758;2022-08-21T14:59:57;7.75;;;2.33;;
11490;SDS011;5802;52.832;4.758;2022-08-21T15:02:24;7.05;;;2.58;;
11490;SDS011;5802;52.832;4.758;2022-08-21T15:04:52;7.80;;;2.00;;
11490;SDS011;5802;52.832;4.758;2022-08-21T15:07:19;6.32;;;2.15;;
11490;SDS011;5802;52.832;4.758;2022-08-21T15:09:45;7.40;;;1.90;;
11490;SDS011;5802;52.832;4.758;2022-08-21T15:12:12;13.48;;;2.25;;
11490;SDS011;5802;52.832;4.758;2022-08-21T15:14:40;6.95;;;2.22;;
11490;SDS011;5802;52.832;4.758;2022-08-21T15:17:07;5.60;;;2.10;;